createdAt,value
2016-12-13T00:00:26.881Z,976.36
2016-12-13T00:01:26.925Z,976.38
2016-12-13T00:02:26.869Z,976.36
2016-12-13T00:03:26.865Z,976.38
2016-12-13T00:04:26.861Z,976.4
2016-12-13T00:05:26.858Z,976.36
2016-12-13T00:06:26.853Z,976.38
2016-12-13T00:07:26.845Z,976.38
2016-12-13T00:08:26.842Z,976.38
2016-12-13T00:09:26.838Z,976.37
2016-12-13T00:10:26.833Z,976.42
2016-12-13T00:11:26.826Z,976.37
2016-12-13T00:12:26.822Z,976.42
2016-12-13T00:13:26.818Z,976.43
2016-12-13T00:14:26.814Z,976.42
2016-12-13T00:15:26.806Z,976.43
2016-12-13T00:16:26.802Z,976.46
2016-12-13T00:17:26.798Z,976.44
2016-12-13T00:18:26.794Z,976.45
2016-12-13T00:19:26.790Z,976.4
2016-12-13T00:20:26.782Z,976.42
2016-12-13T00:21:26.778Z,976.39
2016-12-13T00:22:26.774Z,976.39
2016-12-13T00:23:26.770Z,976.39
2016-12-13T00:24:26.763Z,976.34
2016-12-13T00:25:26.762Z,976.34
2016-12-13T00:26:26.755Z,976.38
2016-12-13T00:27:26.751Z,976.41
2016-12-13T00:28:26.747Z,976.38
2016-12-13T00:29:26.739Z,976.41
2016-12-13T00:30:26.735Z,976.38
2016-12-13T00:31:26.731Z,976.37
2016-12-13T00:32:26.728Z,976.34
2016-12-13T00:33:26.719Z,976.37
2016-12-13T00:34:26.715Z,976.34
2016-12-13T00:35:26.711Z,976.36
2016-12-13T00:36:26.707Z,976.37
2016-12-13T00:37:26.699Z,976.36
2016-12-13T00:38:26.695Z,976.38
2016-12-13T00:39:26.691Z,976.38
2016-12-13T00:40:26.687Z,976.38
2016-12-13T00:41:26.679Z,976.36
2016-12-13T00:42:26.675Z,976.41
2016-12-13T00:43:26.672Z,976.39
2016-12-13T00:44:26.674Z,976.37
2016-12-13T00:45:26.660Z,976.38
2016-12-13T00:46:26.656Z,976.39
2016-12-13T00:47:26.652Z,976.36
2016-12-13T00:48:28.060Z,976.37
2016-12-13T00:49:26.640Z,976.4
2016-12-13T00:50:26.636Z,976.39
2016-12-13T00:51:26.632Z,976.38
2016-12-13T00:52:26.628Z,976.35
2016-12-13T00:53:26.620Z,976.37
2016-12-13T00:54:26.616Z,976.38
2016-12-13T00:55:26.612Z,976.37
2016-12-13T00:56:26.608Z,976.39
2016-12-13T00:57:26.600Z,976.37
2016-12-13T00:58:26.596Z,976.37
2016-12-13T00:59:26.598Z,976.41
2016-12-13T01:00:26.588Z,976.45
2016-12-13T01:01:26.584Z,976.44
2016-12-13T01:02:26.577Z,976.43
2016-12-13T01:03:26.573Z,976.48
2016-12-13T01:04:26.569Z,976.49
2016-12-13T01:05:26.564Z,976.49
2016-12-13T01:06:26.557Z,976.49
2016-12-13T01:07:26.553Z,976.49
2016-12-13T01:08:26.549Z,976.46
2016-12-13T01:09:26.545Z,976.48
2016-12-13T01:10:26.537Z,976.47
2016-12-13T01:11:26.533Z,976.49
2016-12-13T01:12:26.529Z,976.46
2016-12-13T01:13:26.526Z,976.46
2016-12-13T01:14:26.517Z,976.46
2016-12-13T01:15:26.513Z,976.46
2016-12-13T01:16:26.509Z,976.45
2016-12-13T01:17:26.505Z,976.43
2016-12-13T01:18:26.497Z,976.47
2016-12-13T01:19:26.493Z,976.45
2016-12-13T01:20:26.489Z,976.45
2016-12-13T01:21:26.486Z,976.51
2016-12-13T01:22:26.477Z,976.44
2016-12-13T01:23:26.474Z,976.49
2016-12-13T01:24:26.472Z,976.5
2016-12-13T01:25:26.468Z,976.49
2016-12-13T01:26:26.458Z,976.51
2016-12-13T01:27:26.454Z,976.48
2016-12-13T01:28:26.450Z,976.46
2016-12-13T01:29:26.446Z,976.49
2016-12-13T01:30:26.440Z,976.52
2016-12-13T01:31:26.434Z,976.53
2016-12-13T01:32:26.430Z,976.52
2016-12-13T01:33:26.426Z,976.53
2016-12-13T01:34:26.418Z,976.52
2016-12-13T01:35:26.414Z,976.49
2016-12-13T01:36:26.411Z,976.5
2016-12-13T01:37:26.406Z,976.48
2016-12-13T01:38:26.398Z,976.49
2016-12-13T01:39:26.394Z,976.49
2016-12-13T01:40:26.390Z,976.48
2016-12-13T01:41:26.387Z,976.52
2016-12-13T01:42:26.378Z,976.5
2016-12-13T01:43:26.375Z,976.5
2016-12-13T01:44:26.370Z,976.52
2016-12-13T01:45:26.362Z,976.5
2016-12-13T01:46:26.359Z,976.49
2016-12-13T01:47:26.354Z,976.53
2016-12-13T01:48:26.350Z,976.49
2016-12-13T01:49:26.343Z,976.46
2016-12-13T01:50:26.339Z,976.45
2016-12-13T01:51:26.335Z,976.45
2016-12-13T01:52:26.331Z,976.47
2016-12-13T01:53:26.323Z,976.46
2016-12-13T01:54:26.319Z,976.45
2016-12-13T01:55:26.315Z,976.43
2016-12-13T01:56:26.311Z,976.45
2016-12-13T01:57:26.303Z,976.38
2016-12-13T01:58:26.299Z,976.41
2016-12-13T01:59:26.295Z,976.4
2016-12-13T02:00:26.287Z,976.37
2016-12-13T02:01:26.283Z,976.37
2016-12-13T02:02:26.282Z,976.38
2016-12-13T02:03:26.275Z,976.41
2016-12-13T02:04:26.267Z,976.41
2016-12-13T02:05:26.264Z,976.42
2016-12-13T02:06:26.259Z,976.38
2016-12-13T02:07:26.255Z,976.42
2016-12-13T02:08:26.248Z,976.44
2016-12-13T02:09:26.243Z,976.43
2016-12-13T02:10:26.240Z,976.43
2016-12-13T02:11:26.231Z,976.4
2016-12-13T02:12:26.228Z,976.37
2016-12-13T02:13:26.223Z,976.38
2016-12-13T02:14:26.220Z,976.39
2016-12-13T02:15:26.212Z,976.38
2016-12-13T02:16:26.208Z,976.4
2016-12-13T02:17:26.203Z,976.35
2016-12-13T02:18:26.200Z,976.36
2016-12-13T02:19:26.192Z,976.33
2016-12-13T02:20:26.188Z,976.34
2016-12-13T02:21:26.184Z,976.36
2016-12-13T02:22:26.175Z,976.32
2016-12-13T02:23:26.173Z,976.31
2016-12-13T02:24:26.168Z,976.33
2016-12-13T02:25:26.164Z,976.35
2016-12-13T02:26:26.156Z,976.39
2016-12-13T02:27:26.152Z,976.38
2016-12-13T02:28:26.148Z,976.41
2016-12-13T02:29:26.140Z,976.37
2016-12-13T02:30:26.136Z,976.39
2016-12-13T02:31:26.132Z,976.36
2016-12-13T02:32:26.128Z,976.39
2016-12-13T02:33:26.120Z,976.42
2016-12-13T02:34:26.116Z,976.42
2016-12-13T02:35:26.112Z,976.42
2016-12-13T02:36:26.104Z,976.41
2016-12-13T02:37:26.100Z,976.4
2016-12-13T02:38:26.097Z,976.41
2016-12-13T02:39:26.092Z,976.44
2016-12-13T02:40:26.084Z,976.39
2016-12-13T02:41:26.081Z,976.44
2016-12-13T02:42:26.077Z,976.42
2016-12-13T02:43:26.069Z,976.44
2016-12-13T02:44:26.065Z,976.39
2016-12-13T02:45:26.061Z,976.41
2016-12-13T02:46:26.053Z,976.4
2016-12-13T02:47:26.049Z,976.4
2016-12-13T02:48:26.045Z,976.37
2016-12-13T02:49:26.041Z,976.39
2016-12-13T02:50:26.037Z,976.38
2016-12-13T02:51:26.029Z,976.36
2016-12-13T02:52:26.025Z,976.37
2016-12-13T02:53:26.021Z,976.35
2016-12-13T02:54:26.017Z,976.35
2016-12-13T02:55:26.009Z,976.31
2016-12-13T02:56:26.005Z,976.34
2016-12-13T02:57:26.001Z,976.33
2016-12-13T02:58:25.993Z,976.32
2016-12-13T02:59:25.989Z,976.3
2016-12-13T03:00:25.985Z,976.28
2016-12-13T03:01:25.977Z,976.3
2016-12-13T03:02:25.974Z,976.27
2016-12-13T03:03:25.969Z,976.29
2016-12-13T03:04:25.965Z,976.3
2016-12-13T03:05:25.957Z,976.28
2016-12-13T03:06:25.954Z,976.29
2016-12-13T03:07:25.950Z,976.28
2016-12-13T03:08:25.942Z,976.26
2016-12-13T03:09:25.938Z,976.27
2016-12-13T03:10:25.933Z,976.24
2016-12-13T03:11:25.930Z,976.26
2016-12-13T03:12:25.922Z,976.26
2016-12-13T03:13:25.918Z,976.28
2016-12-13T03:14:25.914Z,976.3
2016-12-13T03:15:25.906Z,976.28
2016-12-13T03:16:25.902Z,976.23
2016-12-13T03:17:25.898Z,976.23
2016-12-13T03:18:25.894Z,976.24
2016-12-13T03:19:25.886Z,976.23
2016-12-13T03:20:25.882Z,976.24
2016-12-13T03:21:25.878Z,976.27
2016-12-13T03:22:25.874Z,976.22
2016-12-13T03:23:25.866Z,976.22
2016-12-13T03:24:25.862Z,976.2
2016-12-13T03:25:25.858Z,976.2
2016-12-13T03:26:25.850Z,976.23
2016-12-13T03:27:25.846Z,976.18
2016-12-13T03:28:25.842Z,976.17
2016-12-13T03:29:25.838Z,976.17
2016-12-13T03:30:25.831Z,976.16
2016-12-13T03:31:25.826Z,976.16
2016-12-13T03:32:25.823Z,976.18
2016-12-13T03:33:25.819Z,976.14
2016-12-13T03:34:25.813Z,976.17
2016-12-13T03:35:25.958Z,976.16
2016-12-13T03:36:25.802Z,976.18
2016-12-13T03:37:25.799Z,976.18
2016-12-13T03:38:25.791Z,976.19
2016-12-13T03:39:25.787Z,976.16
2016-12-13T03:40:25.783Z,976.16
2016-12-13T03:41:25.779Z,976.24
2016-12-13T03:42:25.771Z,976.25
2016-12-13T03:43:25.766Z,976.28
2016-12-13T03:44:25.763Z,976.25
2016-12-13T03:45:25.758Z,976.26
2016-12-13T03:46:25.751Z,976.22
2016-12-13T03:47:25.747Z,976.25
2016-12-13T03:48:25.743Z,976.22
2016-12-13T03:49:25.738Z,976.21
2016-12-13T03:50:25.734Z,976.22
2016-12-13T03:51:25.726Z,976.2
2016-12-13T03:52:25.723Z,976.2
2016-12-13T03:53:25.718Z,976.19
2016-12-13T03:54:25.710Z,976.19
2016-12-13T03:55:25.706Z,976.15
2016-12-13T03:56:25.703Z,976.16
2016-12-13T03:57:25.698Z,976.15
2016-12-13T03:58:25.694Z,976.14
2016-12-13T03:59:25.687Z,976.18
2016-12-13T04:00:25.682Z,976.13
2016-12-13T04:01:25.679Z,976.12
2016-12-13T04:02:25.675Z,976.1
2016-12-13T04:03:25.671Z,976.08
2016-12-13T04:04:25.663Z,976.1
2016-12-13T04:05:25.658Z,976.11
2016-12-13T04:06:25.655Z,976.12
2016-12-13T04:07:25.651Z,976.1
2016-12-13T04:08:25.653Z,976.06
2016-12-13T04:09:25.638Z,976.1
2016-12-13T04:10:25.634Z,976.07
2016-12-13T04:11:25.631Z,976.08
2016-12-13T04:12:25.626Z,976.04
2016-12-13T04:13:25.618Z,976.02
2016-12-13T04:14:25.614Z,976.04
2016-12-13T04:15:25.610Z,976
2016-12-13T04:16:25.606Z,975.96
2016-12-13T04:17:25.602Z,975.98
2016-12-13T04:18:25.594Z,975.95
2016-12-13T04:19:25.590Z,975.95
2016-12-13T04:20:25.586Z,975.97
2016-12-13T04:21:25.582Z,975.98
2016-12-13T04:22:25.578Z,975.98
2016-12-13T04:23:25.574Z,975.96
2016-12-13T04:24:25.566Z,975.95
2016-12-13T04:25:25.562Z,975.93
2016-12-13T04:26:25.558Z,975.92
2016-12-13T04:27:25.554Z,975.93
2016-12-13T04:28:25.550Z,975.92
2016-12-13T04:29:25.546Z,975.95
2016-12-13T04:30:25.538Z,975.88
2016-12-13T04:31:25.534Z,975.92
2016-12-13T04:32:25.530Z,975.95
2016-12-13T04:33:25.526Z,975.89
2016-12-13T04:34:25.518Z,975.91
2016-12-13T04:35:25.514Z,975.94
2016-12-13T04:36:25.510Z,975.9
2016-12-13T04:37:25.506Z,975.91
2016-12-13T04:38:25.502Z,975.87
2016-12-13T04:39:25.498Z,975.93
2016-12-13T04:40:25.494Z,975.92
2016-12-13T04:41:25.486Z,975.89
2016-12-13T04:42:25.482Z,975.94
2016-12-13T04:43:25.478Z,975.91
2016-12-13T04:44:25.474Z,975.9
2016-12-13T04:45:25.466Z,975.89
2016-12-13T04:46:25.463Z,975.84
2016-12-13T04:47:25.458Z,975.88
2016-12-13T04:48:25.455Z,975.87
2016-12-13T04:49:25.451Z,975.87
2016-12-13T04:50:25.447Z,975.89
2016-12-13T04:51:25.442Z,975.85
2016-12-13T04:52:25.434Z,975.87
2016-12-13T04:53:25.431Z,975.87
2016-12-13T04:54:25.426Z,975.89
2016-12-13T04:55:25.423Z,975.86
2016-12-13T04:56:25.419Z,975.89
2016-12-13T04:57:25.411Z,975.92
2016-12-13T04:58:25.407Z,975.89
2016-12-13T04:59:25.403Z,975.94
2016-12-13T05:00:25.398Z,975.98
2016-12-13T05:01:25.395Z,975.97
2016-12-13T05:02:25.391Z,975.97
2016-12-13T05:03:25.386Z,975.93
2016-12-13T05:04:25.379Z,975.98
2016-12-13T05:05:25.375Z,976.02
2016-12-13T05:06:25.371Z,976.02
2016-12-13T05:07:25.367Z,976.03
2016-12-13T05:08:25.363Z,976
2016-12-13T05:09:25.359Z,976
2016-12-13T05:10:25.351Z,976.02
2016-12-13T05:11:25.347Z,976.03
2016-12-13T05:12:25.343Z,976.01
2016-12-13T05:13:25.339Z,975.98
2016-12-13T05:14:25.338Z,975.97
2016-12-13T05:15:25.331Z,976
2016-12-13T05:16:25.323Z,975.99
2016-12-13T05:17:25.319Z,975.98
2016-12-13T05:18:25.315Z,975.99
2016-12-13T05:19:25.311Z,976.03
2016-12-13T05:20:25.307Z,976.04
2016-12-13T05:21:25.304Z,976.04
2016-12-13T05:22:25.295Z,976.05
2016-12-13T05:23:25.291Z,976.03
2016-12-13T05:24:25.287Z,976.08
2016-12-13T05:25:25.283Z,976.06
2016-12-13T05:26:25.281Z,976.08
2016-12-13T05:27:25.276Z,976.05
2016-12-13T05:28:25.271Z,976.02
2016-12-13T05:29:25.263Z,976.09
2016-12-13T05:30:25.259Z,976.05
2016-12-13T05:31:25.256Z,976.11
2016-12-13T05:32:25.252Z,976.09
2016-12-13T05:33:25.248Z,976.09
2016-12-13T05:34:25.244Z,976.09
2016-12-13T05:35:25.240Z,976.1
2016-12-13T05:36:25.236Z,976.19
2016-12-13T05:37:25.228Z,976.13
2016-12-13T05:38:25.224Z,976.12
2016-12-13T05:39:25.220Z,976.2
2016-12-13T05:40:25.216Z,976.17
2016-12-13T05:41:25.212Z,976.13
2016-12-13T05:42:25.208Z,976.13
2016-12-13T05:43:25.200Z,976.15
2016-12-13T05:44:25.196Z,976.17
2016-12-13T05:45:25.192Z,976.16
2016-12-13T05:46:25.188Z,976.18
2016-12-13T05:47:25.484Z,976.15
2016-12-13T05:48:25.180Z,976.13
2016-12-13T05:49:25.176Z,976.14
2016-12-13T05:50:25.169Z,976.11
2016-12-13T05:51:25.164Z,976.18
2016-12-13T05:52:25.160Z,976.16
2016-12-13T05:53:25.157Z,976.19
2016-12-13T05:54:25.152Z,976.18
2016-12-13T05:55:25.149Z,976.18
2016-12-13T05:56:25.144Z,976.14
2016-12-13T05:57:25.141Z,976.17
2016-12-13T05:58:25.133Z,976.1
2016-12-13T05:59:25.129Z,976.11
2016-12-13T06:00:25.125Z,976.09
2016-12-13T06:01:25.121Z,976.12
2016-12-13T06:02:25.117Z,976.12
2016-12-13T06:03:25.113Z,976.12
2016-12-13T06:04:25.109Z,976.13
2016-12-13T06:05:25.105Z,976.14
2016-12-13T06:06:25.097Z,976.16
2016-12-13T06:07:25.093Z,976.14
2016-12-13T06:08:25.089Z,976.19
2016-12-13T06:09:25.085Z,976.25
2016-12-13T06:10:25.081Z,976.24
2016-12-13T06:11:25.077Z,976.24
2016-12-13T06:12:25.073Z,976.2
2016-12-13T06:13:25.069Z,976.24
2016-12-13T06:14:25.061Z,976.29
2016-12-13T06:15:25.057Z,976.28
2016-12-13T06:16:25.053Z,976.27
2016-12-13T06:17:25.049Z,976.3
2016-12-13T06:18:25.045Z,976.32
2016-12-13T06:19:25.041Z,976.31
2016-12-13T06:20:25.038Z,976.36
2016-12-13T06:21:25.033Z,976.35
2016-12-13T06:22:25.025Z,976.37
2016-12-13T06:23:25.022Z,976.44
2016-12-13T06:24:25.017Z,976.41
2016-12-13T06:25:25.017Z,976.39
2016-12-13T06:26:25.009Z,976.32
2016-12-13T06:27:25.005Z,976.32
2016-12-13T06:28:25.001Z,976.33
2016-12-13T06:29:24.993Z,976.37
2016-12-13T06:30:24.989Z,976.33
2016-12-13T06:31:24.985Z,976.33
2016-12-13T06:32:24.981Z,976.32
2016-12-13T06:33:24.977Z,976.31
2016-12-13T06:34:24.973Z,976.35
2016-12-13T06:35:24.970Z,976.39
2016-12-13T06:36:24.965Z,976.39
2016-12-13T06:37:24.966Z,976.39
2016-12-13T06:38:24.957Z,976.38
2016-12-13T06:39:24.946Z,976.4
2016-12-13T06:40:24.942Z,976.35
2016-12-13T06:41:24.942Z,976.4
2016-12-13T06:42:24.937Z,976.39
2016-12-13T06:43:24.934Z,976.4
2016-12-13T06:44:24.929Z,976.39
2016-12-13T06:45:24.927Z,976.4
2016-12-13T06:46:24.918Z,976.38
2016-12-13T06:47:24.914Z,976.48
2016-12-13T06:48:24.914Z,976.44
2016-12-13T06:49:24.910Z,976.5
2016-12-13T06:50:24.902Z,976.49
2016-12-13T06:51:24.895Z,976.52
2016-12-13T06:52:24.890Z,976.54
2016-12-13T06:53:24.890Z,976.51
2016-12-13T06:54:24.886Z,976.52
2016-12-13T06:55:24.882Z,976.49
2016-12-13T06:56:24.874Z,976.52
2016-12-13T06:57:24.870Z,976.55
2016-12-13T06:58:24.866Z,976.54
2016-12-13T06:59:24.862Z,976.54
2016-12-13T07:00:24.858Z,976.58
2016-12-13T07:01:24.851Z,976.6
2016-12-13T07:02:24.850Z,976.64
2016-12-13T07:03:24.847Z,976.64
2016-12-13T07:04:24.838Z,976.66
2016-12-13T07:05:24.831Z,976.65
2016-12-13T07:06:24.831Z,976.65
2016-12-13T07:07:24.826Z,976.69
2016-12-13T07:08:24.822Z,976.65
2016-12-13T07:09:24.972Z,976.66
2016-12-13T07:10:24.814Z,976.7
2016-12-13T07:11:24.811Z,976.72
2016-12-13T07:12:24.807Z,976.74
2016-12-13T07:13:24.810Z,976.75
2016-12-13T07:14:24.791Z,976.76
2016-12-13T07:15:24.791Z,976.73
2016-12-13T07:16:24.787Z,976.7
2016-12-13T07:17:24.783Z,976.71
2016-12-13T07:18:24.775Z,976.73
2016-12-13T07:19:24.771Z,976.71
2016-12-13T07:20:24.771Z,976.72
2016-12-13T07:21:24.770Z,976.72
2016-12-13T07:22:24.756Z,976.7
2016-12-13T07:23:24.755Z,976.74
2016-12-13T07:24:24.751Z,976.72
2016-12-13T07:25:24.748Z,976.73
2016-12-13T07:26:24.743Z,976.77
2016-12-13T07:27:24.739Z,976.78
2016-12-13T07:28:24.736Z,976.83
2016-12-13T07:29:24.735Z,976.84
2016-12-13T07:30:24.724Z,976.91
2016-12-13T07:31:24.719Z,976.91
2016-12-13T07:32:24.712Z,976.92
2016-12-13T07:33:24.711Z,976.91
2016-12-13T07:34:24.708Z,976.92
2016-12-13T07:35:24.704Z,976.92
2016-12-13T07:36:24.700Z,976.94
2016-12-13T07:37:24.696Z,976.95
2016-12-13T07:38:24.688Z,976.95
2016-12-13T07:39:24.684Z,976.97
2016-12-13T07:40:24.684Z,977.01
2016-12-13T07:41:24.676Z,976.99
2016-12-13T07:42:24.669Z,976.98
2016-12-13T07:43:24.668Z,976.93
2016-12-13T07:44:24.660Z,976.96
2016-12-13T07:45:24.660Z,976.97
2016-12-13T07:46:24.657Z,976.95
2016-12-13T07:47:24.652Z,976.97
2016-12-13T07:48:24.640Z,976.95
2016-12-13T07:49:24.640Z,976.98
2016-12-13T07:50:24.637Z,976.98
2016-12-13T07:51:24.632Z,976.98
2016-12-13T07:52:24.629Z,977.03
2016-12-13T07:53:24.625Z,977.03
2016-12-13T07:54:24.621Z,977.06
2016-12-13T07:55:24.614Z,977.08
2016-12-13T07:56:24.609Z,977.04
2016-12-13T07:57:24.609Z,977.07
2016-12-13T07:58:24.606Z,977.11
2016-12-13T07:59:24.597Z,977.07
2016-12-13T08:00:24.593Z,977.05
2016-12-13T08:01:24.589Z,977.05
2016-12-13T08:02:24.581Z,977.04
2016-12-13T08:03:24.576Z,977.05
2016-12-13T08:04:24.573Z,977.05
2016-12-13T08:05:24.573Z,977.1
2016-12-13T08:06:24.569Z,977.05
2016-12-13T08:07:24.565Z,977.07
2016-12-13T08:08:24.557Z,977
2016-12-13T08:09:24.553Z,977.03
2016-12-13T08:10:24.549Z,977.03
2016-12-13T08:11:24.541Z,977.06
2016-12-13T08:12:24.537Z,977.02
2016-12-13T08:13:24.537Z,977.07
2016-12-13T08:14:24.529Z,977.11
2016-12-13T08:15:24.528Z,977.12
2016-12-13T08:16:24.525Z,977.13
2016-12-13T08:17:24.520Z,977.12
2016-12-13T08:18:24.517Z,977.14
2016-12-13T08:19:24.513Z,977.16
2016-12-13T08:20:24.504Z,977.14
2016-12-13T08:21:24.500Z,977.18
2016-12-13T08:22:24.496Z,977.19
2016-12-13T08:23:24.492Z,977.2
2016-12-13T08:24:24.488Z,977.19
2016-12-13T08:25:24.484Z,977.22
2016-12-13T08:26:24.477Z,977.19
2016-12-13T08:27:24.477Z,977.2
2016-12-13T08:28:24.472Z,977.25
2016-12-13T08:29:24.468Z,977.26
2016-12-13T08:30:24.460Z,977.29
2016-12-13T08:31:24.456Z,977.24
2016-12-13T08:32:24.453Z,977.26
2016-12-13T08:33:24.445Z,977.24
2016-12-13T08:34:24.441Z,977.26
2016-12-13T08:35:24.437Z,977.27
2016-12-13T08:36:24.432Z,977.26
2016-12-13T08:37:24.429Z,977.27
2016-12-13T08:38:24.429Z,977.29
2016-12-13T08:39:24.421Z,977.28
2016-12-13T08:40:24.417Z,977.25
2016-12-13T08:41:24.413Z,977.22
2016-12-13T08:42:24.409Z,977.23
2016-12-13T08:43:24.409Z,977.2
2016-12-13T08:44:24.402Z,977.22
2016-12-13T08:45:24.401Z,977.26
2016-12-13T08:46:24.397Z,977.23
2016-12-13T08:47:24.389Z,977.24
2016-12-13T08:48:24.385Z,977.22
2016-12-13T08:49:24.385Z,977.23
2016-12-13T08:50:24.377Z,977.25
2016-12-13T08:51:24.373Z,977.27
2016-12-13T08:52:24.370Z,977.27
2016-12-13T08:53:24.366Z,977.27
2016-12-13T08:54:24.362Z,977.25
2016-12-13T08:55:24.358Z,977.28
2016-12-13T08:56:24.350Z,977.28
2016-12-13T08:57:24.346Z,977.26
2016-12-13T08:58:24.346Z,977.28
2016-12-13T08:59:24.342Z,977.31
2016-12-13T09:00:24.338Z,977.28
2016-12-13T09:01:24.334Z,977.29
2016-12-13T09:02:24.330Z,977.28
2016-12-13T09:03:24.326Z,977.26
2016-12-13T09:04:24.318Z,977.3
2016-12-13T09:05:24.314Z,977.28
2016-12-13T09:06:24.314Z,977.28
2016-12-13T09:07:24.310Z,977.32
2016-12-13T09:08:24.309Z,977.35
2016-12-13T09:09:24.302Z,977.32
2016-12-13T09:10:24.294Z,977.3
2016-12-13T09:11:24.291Z,977.33
2016-12-13T09:12:24.287Z,977.35
2016-12-13T09:13:24.286Z,977.32
2016-12-13T09:14:24.282Z,977.34
2016-12-13T09:15:24.278Z,977.31
2016-12-13T09:16:24.275Z,977.3
2016-12-13T09:17:24.267Z,977.33
2016-12-13T09:18:24.263Z,977.33
2016-12-13T09:19:24.258Z,977.27
2016-12-13T09:20:24.259Z,977.31
2016-12-13T09:21:24.255Z,977.28
2016-12-13T09:22:24.247Z,977.27
2016-12-13T09:23:24.239Z,977.25
2016-12-13T09:24:24.239Z,977.27
2016-12-13T09:25:24.241Z,977.24
2016-12-13T09:26:24.235Z,977.21
2016-12-13T09:27:24.223Z,977.23
2016-12-13T09:28:24.220Z,977.23
2016-12-13T09:29:24.223Z,977.25
2016-12-13T09:30:24.215Z,977.29
2016-12-13T09:31:24.207Z,977.28
2016-12-13T09:32:24.203Z,977.24
2016-12-13T09:33:24.203Z,977.24
2016-12-13T09:34:24.200Z,977.25
2016-12-13T09:35:24.196Z,977.27
2016-12-13T09:36:24.192Z,977.22
2016-12-13T09:37:24.192Z,977.23
2016-12-13T09:38:24.183Z,977.24
2016-12-13T09:39:24.180Z,977.21
2016-12-13T09:40:24.180Z,977.27
2016-12-13T09:41:24.172Z,977.24
2016-12-13T09:42:24.164Z,977.23
2016-12-13T09:43:24.168Z,977.23
2016-12-13T09:44:24.164Z,977.26
2016-12-13T09:45:24.156Z,977.19
2016-12-13T09:46:24.152Z,977.24
2016-12-13T09:47:24.152Z,977.25
2016-12-13T09:48:24.144Z,977.21
2016-12-13T09:49:24.140Z,977.27
2016-12-13T09:50:24.140Z,977.25
2016-12-13T09:51:24.135Z,977.26
2016-12-13T09:52:24.128Z,977.3
2016-12-13T09:53:24.128Z,977.32
2016-12-13T09:54:24.124Z,977.33
2016-12-13T09:55:24.120Z,977.32
2016-12-13T09:56:24.112Z,977.31
2016-12-13T09:57:24.112Z,977.29
2016-12-13T09:58:24.108Z,977.31
2016-12-13T09:59:24.100Z,977.3
2016-12-13T10:00:24.100Z,977.34
2016-12-13T10:01:24.096Z,977.32
2016-12-13T10:02:24.092Z,977.31
2016-12-13T10:03:24.084Z,977.28
2016-12-13T10:05:24.081Z,977.31
2016-12-13T10:06:24.073Z,977.32
2016-12-13T10:07:24.073Z,977.32
2016-12-13T10:08:24.069Z,977.3
2016-12-13T10:09:24.065Z,977.26
2016-12-13T10:10:24.062Z,977.24
2016-12-13T10:11:24.056Z,977.28
2016-12-13T10:12:24.053Z,977.28
2016-12-13T10:13:24.053Z,977.25
2016-12-13T10:14:24.041Z,977.27
2016-12-13T10:15:24.045Z,977.28
2016-12-13T10:16:24.037Z,977.25
2016-12-13T10:17:24.037Z,977.25
2016-12-13T10:18:24.033Z,977.25
2016-12-13T10:19:24.029Z,977.26
2016-12-13T10:20:24.021Z,977.25
2016-12-13T10:21:24.022Z,977.28
2016-12-13T10:22:24.014Z,977.25
2016-12-13T10:23:24.013Z,977.21
2016-12-13T10:24:24.009Z,977.18
2016-12-13T10:25:24.006Z,977.13
2016-12-13T10:26:24.002Z,977.16
2016-12-13T10:27:23.998Z,977.14
2016-12-13T10:28:23.999Z,977.13
2016-12-13T10:29:23.986Z,977.09
2016-12-13T10:30:23.986Z,977.11
2016-12-13T10:31:23.986Z,977.13
2016-12-13T10:32:23.978Z,977.1
2016-12-13T10:33:23.978Z,977.15
2016-12-13T10:34:23.974Z,977.12
2016-12-13T10:35:23.970Z,977.11
2016-12-13T10:36:23.966Z,977.1
2016-12-13T10:37:23.958Z,977.03
2016-12-13T10:38:23.959Z,977.03
2016-12-13T10:39:23.958Z,977.03
2016-12-13T10:40:23.946Z,977.03
2016-12-13T10:41:23.951Z,977
2016-12-13T10:42:23.946Z,977
2016-12-13T10:43:23.943Z,976.98
2016-12-13T10:44:23.939Z,976.97
2016-12-13T10:45:23.934Z,977.01
2016-12-13T10:46:23.930Z,977.01
2016-12-13T10:47:23.927Z,976.97
2016-12-13T10:48:23.922Z,977.02
2016-12-13T10:49:23.922Z,977.01
2016-12-13T10:50:23.919Z,976.99
2016-12-13T10:51:23.915Z,977
2016-12-13T10:52:23.911Z,976.98
2016-12-13T10:53:23.907Z,976.97
2016-12-13T10:54:23.903Z,976.99
2016-12-13T10:55:23.899Z,977
2016-12-13T10:56:23.891Z,976.97
2016-12-13T10:57:23.895Z,976.98
2016-12-13T10:58:23.887Z,976.98
2016-12-13T10:59:23.883Z,976.95
2016-12-13T11:00:23.883Z,976.96
2016-12-13T11:01:23.879Z,976.96
2016-12-13T11:02:23.871Z,976.96
2016-12-13T11:03:23.872Z,976.98
2016-12-13T11:04:23.867Z,977.01
2016-12-13T11:05:23.860Z,976.95
2016-12-13T11:06:23.862Z,976.95
2016-12-13T11:07:23.860Z,976.96
2016-12-13T11:08:23.856Z,976.91
2016-12-13T11:09:23.848Z,976.9
2016-12-13T11:10:23.848Z,976.92
2016-12-13T11:11:23.844Z,976.88
2016-12-13T11:12:23.840Z,976.88
2016-12-13T11:13:23.832Z,976.91
2016-12-13T11:14:23.833Z,976.87
2016-12-13T11:15:23.825Z,976.82
2016-12-13T11:16:23.820Z,976.83
2016-12-13T11:17:23.824Z,976.8
2016-12-13T11:18:23.820Z,976.75
2016-12-13T11:19:23.813Z,976.76
2016-12-13T11:20:23.816Z,976.78
2016-12-13T11:21:23.808Z,976.72
2016-12-13T11:22:23.804Z,976.72
2016-12-13T11:23:23.797Z,976.75
2016-12-13T11:24:23.792Z,976.75
2016-12-13T11:25:23.797Z,976.79
2016-12-13T11:26:23.793Z,976.77
2016-12-13T11:27:23.789Z,976.8
2016-12-13T11:28:23.781Z,976.81
2016-12-13T11:29:23.777Z,976.8
2016-12-13T11:30:23.777Z,976.82
2016-12-13T11:31:23.773Z,976.82
2016-12-13T11:32:23.766Z,976.84
2016-12-13T11:33:23.765Z,976.81
2016-12-13T11:34:23.765Z,976.75
2016-12-13T11:35:23.761Z,976.72
2016-12-13T11:36:23.757Z,976.72
2016-12-13T11:37:23.754Z,976.75
2016-12-13T11:38:23.745Z,976.72
2016-12-13T11:39:23.742Z,976.71
2016-12-13T11:40:23.745Z,976.72
2016-12-13T11:41:23.742Z,976.67
2016-12-13T11:42:23.737Z,976.71
2016-12-13T11:43:23.734Z,976.69
2016-12-13T11:44:23.726Z,976.69
2016-12-13T11:45:23.726Z,976.67
2016-12-13T11:46:23.722Z,976.64
2016-12-13T11:47:23.722Z,976.7
2016-12-13T11:48:23.718Z,976.64
2016-12-13T11:49:23.714Z,976.64
2016-12-13T11:50:23.706Z,976.6
2016-12-13T11:51:23.702Z,976.54
2016-12-13T11:52:23.702Z,976.56
2016-12-13T11:53:23.698Z,976.52
2016-12-13T11:54:23.698Z,976.54
2016-12-13T11:55:23.694Z,976.5
2016-12-13T11:56:23.690Z,976.52
2016-12-13T11:57:23.683Z,976.48
2016-12-13T11:58:23.683Z,976.5
2016-12-13T11:59:23.680Z,976.48
2016-12-13T12:00:23.674Z,976.47
2016-12-13T12:01:23.676Z,976.45
2016-12-13T12:02:23.672Z,976.45
2016-12-13T12:03:23.667Z,976.46
2016-12-13T12:04:23.663Z,976.47
2016-12-13T12:05:23.655Z,976.44
2016-12-13T12:06:23.651Z,976.43
2016-12-13T12:07:23.651Z,976.41
2016-12-13T12:08:23.651Z,976.41
2016-12-13T12:09:23.647Z,976.38
2016-12-13T12:10:23.643Z,976.4
2016-12-13T12:11:23.639Z,976.36
2016-12-13T12:12:23.635Z,976.35
2016-12-13T12:13:23.631Z,976.34
2016-12-13T12:14:23.632Z,976.33
2016-12-13T12:15:23.624Z,976.28
2016-12-13T12:16:23.629Z,976.26
2016-12-13T12:17:23.616Z,976.23
2016-12-13T12:18:23.616Z,976.29
2016-12-13T12:19:23.612Z,976.28
2016-12-13T12:20:23.612Z,976.31
2016-12-13T12:21:23.608Z,976.32
2016-12-13T12:22:23.604Z,976.37
2016-12-13T12:23:23.600Z,976.43
2016-12-13T12:24:23.600Z,976.43
2016-12-13T12:25:23.596Z,976.45
2016-12-13T12:26:23.592Z,976.51
2016-12-13T12:27:23.590Z,976.55
2016-12-13T12:28:23.584Z,976.48
2016-12-13T12:29:23.580Z,976.52
2016-12-13T12:30:23.576Z,976.48
2016-12-13T12:31:23.576Z,976.48
2016-12-13T12:32:23.572Z,976.5